sensor_id;sensor_type;location;lat;lon;timestamp;P1;durP1;ratioP1;P2;durP2;ratioP2
41755;SDS011;27435;48.480;9.258;2022-09-06T00:00:05;5.90;;;2.30;;
41755;SDS011;27435;48.480;9.258;2022-09-06T00:02:33;3.78;;;2.40;;
41755;SDS011;27435;48.480;9.258;2022-09-06T00:04:59;7.57;;;2.15;;
41755;SDS011;27435;48.480;9.258;2022-09-06T00:07:24;4.00;;;2.30;;
41755;SDS011;27435;48.480;9.258;2022-09-06T00:09:51;3.10;;;1.88;;
41755;SDS011;27435;48.480;9.258;2022-09-06T00:12:16;3.05;;;2.08;;
41755;SDS011;27435;48.480;9.258;2022-09-06T00:14:42;4.38;;;1.92;;
41755;SDS011;27435;48.480;9.258;2022-09-06T00:17:08;5.28;;;2.25;;
41755;SDS011;27435;48.480;9.258;2022-09-06T00:19:33;5.07;;;2.47;;
41755;SDS011;27435;48.480;9.258;2022-09-06T00:21:59;7.82;;;3.00;;
41755;SDS011;27435;48.480;9.258;2022-09-06T00:24:25;4.13;;;2.10;;
41755;SDS011;27435;48.480;9.258;2022-09-06T00:26:50;5.47;;;2.60;;
41755;SDS011;27435;48.480;9.258;2022-09-06T00:29:16;8.63;;;2.53;;
41755;SDS011;27435;48.480;9.258;2022-09-06T00:31:41;3.80;;;2.28;;
41755;SDS011;27435;48.480;9.258;2022-09-06T00:34:07;5.05;;;2.40;;
41755;SDS011;27435;48.480;9.258;2022-09-06T00:36:33;5.82;;;2.47;;
41755;SDS011;27435;48.480;9.258;2022-09-06T00:38:58;6.43;;;2.45;;
41755;SDS011;27435;48.480;9.258;2022-09-06T00:41:24;4.57;;;2.45;;
41755;SDS011;27435;48.480;9.258;2022-09-06T00:43:49;4.28;;;2.05;;
41755;SDS011;27435;48.480;9.258;2022-09-06T00:46:19;4.30;;;2.20;;
41755;SDS011;27435;48.480;9.258;2022-09-06T00:48:51;7.38;;;2.17;;
41755;SDS011;27435;48.480;9.258;2022-09-06T00:51:21;4.47;;;2.13;;
41755;SDS011;27435;48.480;9.258;2022-09-06T00:53:48;3.25;;;2.22;;
41755;SDS011;27435;48.480;9.258;2022-09-06T00:56:15;3.58;;;2.13;;
41755;SDS011;27435;48.480;9.258;2022-09-06T00:58:40;6.97;;;2.60;;
41755;SDS011;27435;48.480;9.258;2022-09-06T01:01:06;3.92;;;2.42;;
41755;SDS011;27435;48.480;9.258;2022-09-06T01:03:32;7.00;;;2.35;;
41755;SDS011;27435;48.480;9.258;2022-09-06T01:06:02;5.50;;;2.53;;
41755;SDS011;27435;48.480;9.258;2022-09-06T01:17:08;3.50;;;2.30;;
41755;SDS011;27435;48.480;9.258;2022-09-06T01:19:53;6.93;;;2.40;;
41755;SDS011;27435;48.480;9.258;2022-09-06T01:25:41;3.13;;;2.03;;
41755;SDS011;27435;48.480;9.258;2022-09-06T01:28:41;4.90;;;2.53;;
41755;SDS011;27435;48.480;9.258;2022-09-06T01:36:28;3.42;;;2.33;;
41755;SDS011;27435;48.480;9.258;2022-09-06T01:39:05;5.80;;;2.42;;
41755;SDS011;27435;48.480;9.258;2022-09-06T01:41:30;5.20;;;2.33;;
41755;SDS011;27435;48.480;9.258;2022-09-06T01:43:57;3.88;;;2.22;;
41755;SDS011;27435;48.480;9.258;2022-09-06T01:46:26;3.80;;;2.50;;
41755;SDS011;27435;48.480;9.258;2022-09-06T01:54:54;6.28;;;2.40;;
41755;SDS011;27435;48.480;9.258;2022-09-06T02:00:18;4.32;;;2.58;;
41755;SDS011;27435;48.480;9.258;2022-09-06T02:08:11;4.00;;;2.38;;
41755;SDS011;27435;48.480;9.258;2022-09-06T02:10:52;4.82;;;2.92;;
41755;SDS011;27435;48.480;9.258;2022-09-06T02:13:19;6.50;;;2.78;;
41755;SDS011;27435;48.480;9.258;2022-09-06T02:15:50;4.32;;;2.50;;
41755;SDS011;27435;48.480;9.258;2022-09-06T02:18:21;4.65;;;2.70;;
41755;SDS011;27435;48.480;9.258;2022-09-06T02:20:53;5.90;;;2.97;;
41755;SDS011;27435;48.480;9.258;2022-09-06T02:23:22;4.18;;;2.58;;
41755;SDS011;27435;48.480;9.258;2022-09-06T02:25:52;5.25;;;2.78;;
41755;SDS011;27435;48.480;9.258;2022-09-06T02:28:26;3.67;;;2.67;;
41755;SDS011;27435;48.480;9.258;2022-09-06T02:30:52;4.32;;;2.72;;
41755;SDS011;27435;48.480;9.258;2022-09-06T02:33:25;5.50;;;2.78;;
41755;SDS011;27435;48.480;9.258;2022-09-06T02:35:54;7.32;;;3.00;;
41755;SDS011;27435;48.480;9.258;2022-09-06T02:38:21;5.75;;;2.90;;
41755;SDS011;27435;48.480;9.258;2022-09-06T02:40:49;4.80;;;2.97;;
41755;SDS011;27435;48.480;9.258;2022-09-06T02:43:17;5.60;;;2.30;;
41755;SDS011;27435;48.480;9.258;2022-09-06T02:45:43;5.05;;;2.72;;
41755;SDS011;27435;48.480;9.258;2022-09-06T02:48:09;4.40;;;3.08;;
41755;SDS011;27435;48.480;9.258;2022-09-06T02:50:34;4.32;;;2.80;;
41755;SDS011;27435;48.480;9.258;2022-09-06T02:53:04;5.60;;;3.08;;
41755;SDS011;27435;48.480;9.258;2022-09-06T02:55:33;6.97;;;2.50;;
41755;SDS011;27435;48.480;9.258;2022-09-06T02:57:59;5.03;;;2.78;;
41755;SDS011;27435;48.480;9.258;2022-09-06T03:00:25;6.43;;;2.92;;
41755;SDS011;27435;48.480;9.258;2022-09-06T03:02:51;6.40;;;3.30;;
41755;SDS011;27435;48.480;9.258;2022-09-06T03:05:17;9.00;;;3.55;;
41755;SDS011;27435;48.480;9.258;2022-09-06T03:07:43;7.60;;;4.00;;
41755;SDS011;27435;48.480;9.258;2022-09-06T03:10:08;7.88;;;4.03;;
41755;SDS011;27435;48.480;9.258;2022-09-06T03:12:34;8.00;;;4.03;;
41755;SDS011;27435;48.480;9.258;2022-09-06T03:15:00;7.32;;;3.90;;
41755;SDS011;27435;48.480;9.258;2022-09-06T03:17:25;5.70;;;3.30;;
41755;SDS011;27435;48.480;9.258;2022-09-06T03:19:51;8.43;;;3.55;;
41755;SDS011;27435;48.480;9.258;2022-09-06T03:22:17;5.50;;;3.75;;
41755;SDS011;27435;48.480;9.258;2022-09-06T03:24:43;5.55;;;3.15;;
41755;SDS011;27435;48.480;9.258;2022-09-06T03:27:08;6.15;;;3.05;;
41755;SDS011;27435;48.480;9.258;2022-09-06T03:29:34;6.20;;;3.38;;
41755;SDS011;27435;48.480;9.258;2022-09-06T03:31:59;5.97;;;3.05;;
41755;SDS011;27435;48.480;9.258;2022-09-06T03:34:25;6.57;;;4.00;;
41755;SDS011;27435;48.480;9.258;2022-09-06T03:36:51;6.22;;;3.70;;
41755;SDS011;27435;48.480;9.258;2022-09-06T03:39:16;4.32;;;3.20;;
41755;SDS011;27435;48.480;9.258;2022-09-06T03:41:42;6.97;;;3.25;;
41755;SDS011;27435;48.480;9.258;2022-09-06T03:44:08;5.35;;;3.20;;
41755;SDS011;27435;48.480;9.258;2022-09-06T03:46:33;7.00;;;3.00;;
41755;SDS011;27435;48.480;9.258;2022-09-06T03:48:59;5.28;;;2.75;;
41755;SDS011;27435;48.480;9.258;2022-09-06T03:51:25;5.90;;;3.05;;
41755;SDS011;27435;48.480;9.258;2022-09-06T03:53:51;6.90;;;3.90;;
41755;SDS011;27435;48.480;9.258;2022-09-06T03:56:17;5.63;;;3.22;;
41755;SDS011;27435;48.480;9.258;2022-09-06T03:58:42;7.85;;;3.78;;
41755;SDS011;27435;48.480;9.258;2022-09-06T04:01:09;7.30;;;3.55;;
41755;SDS011;27435;48.480;9.258;2022-09-06T04:03:36;7.55;;;3.47;;
41755;SDS011;27435;48.480;9.258;2022-09-06T04:06:03;4.88;;;3.35;;
41755;SDS011;27435;48.480;9.258;2022-09-06T04:08:29;6.78;;;3.53;;
41755;SDS011;27435;48.480;9.258;2022-09-06T04:10:56;5.40;;;3.13;;
41755;SDS011;27435;48.480;9.258;2022-09-06T04:13:22;7.43;;;3.15;;
41755;SDS011;27435;48.480;9.258;2022-09-06T04:15:49;7.63;;;4.30;;
41755;SDS011;27435;48.480;9.258;2022-09-06T04:18:15;5.70;;;3.85;;
41755;SDS011;27435;48.480;9.258;2022-09-06T04:20:41;7.90;;;3.40;;
41755;SDS011;27435;48.480;9.258;2022-09-06T04:23:07;11.32;;;3.97;;
41755;SDS011;27435;48.480;9.258;2022-09-06T04:25:33;6.78;;;3.55;;
41755;SDS011;27435;48.480;9.258;2022-09-06T04:27:58;9.20;;;3.92;;
41755;SDS011;27435;48.480;9.258;2022-09-06T04:30:24;6.40;;;4.13;;
41755;SDS011;27435;48.480;9.258;2022-09-06T04:32:50;6.45;;;3.63;;
41755;SDS011;27435;48.480;9.258;2022-09-06T04:35:16;5.80;;;3.78;;
41755;SDS011;27435;48.480;9.258;2022-09-06T04:37:41;6.40;;;4.00;;
41755;SDS011;27435;48.480;9.258;2022-09-06T04:40:07;8.05;;;3.97;;
41755;SDS011;27435;48.480;9.258;2022-09-06T04:42:33;9.80;;;4.15;;
41755;SDS011;27435;48.480;9.258;2022-09-06T04:44:59;6.60;;;3.35;;
41755;SDS011;27435;48.480;9.258;2022-09-06T04:47:24;4.15;;;3.15;;
41755;SDS011;27435;48.480;9.258;2022-09-06T04:49:50;6.28;;;3.75;;
41755;SDS011;27435;48.480;9.258;2022-09-06T04:52:17;6.32;;;4.00;;
41755;SDS011;27435;48.480;9.258;2022-09-06T04:54:43;5.93;;;3.83;;
41755;SDS011;27435;48.480;9.258;2022-09-06T04:57:09;5.32;;;3.58;;
41755;SDS011;27435;48.480;9.258;2022-09-06T04:59:35;5.95;;;3.30;;
41755;SDS011;27435;48.480;9.258;2022-09-06T05:02:00;6.32;;;3.45;;
41755;SDS011;27435;48.480;9.258;2022-09-06T05:04:26;3.88;;;3.00;;
41755;SDS011;27435;48.480;9.258;2022-09-06T05:07:04;6.45;;;3.53;;
41755;SDS011;27435;48.480;9.258;2022-09-06T05:09:31;5.70;;;3.83;;
41755;SDS011;27435;48.480;9.258;2022-09-06T05:11:58;6.97;;;3.42;;
41755;SDS011;27435;48.480;9.258;2022-09-06T05:14:24;6.60;;;2.95;;
41755;SDS011;27435;48.480;9.258;2022-09-06T05:16:50;7.22;;;3.20;;
41755;SDS011;27435;48.480;9.258;2022-09-06T05:19:16;5.32;;;3.22;;
41755;SDS011;27435;48.480;9.258;2022-09-06T05:21:43;6.43;;;3.08;;
41755;SDS011;27435;48.480;9.258;2022-09-06T05:24:09;6.47;;;4.00;;
41755;SDS011;27435;48.480;9.258;2022-09-06T05:26:35;4.13;;;2.70;;
41755;SDS011;27435;48.480;9.258;2022-09-06T05:29:00;6.88;;;3.05;;
41755;SDS011;27435;48.480;9.258;2022-09-06T05:31:29;5.13;;;3.08;;
41755;SDS011;27435;48.480;9.258;2022-09-06T05:33:56;4.50;;;2.72;;
41755;SDS011;27435;48.480;9.258;2022-09-06T05:36:22;5.05;;;2.97;;
41755;SDS011;27435;48.480;9.258;2022-09-06T05:38:49;7.40;;;3.47;;
41755;SDS011;27435;48.480;9.258;2022-09-06T05:41:15;8.63;;;3.55;;
41755;SDS011;27435;48.480;9.258;2022-09-06T05:43:41;8.10;;;3.83;;
41755;SDS011;27435;48.480;9.258;2022-09-06T05:46:07;7.47;;;3.00;;
41755;SDS011;27435;48.480;9.258;2022-09-06T05:48:33;6.55;;;3.40;;
41755;SDS011;27435;48.480;9.258;2022-09-06T05:50:59;5.07;;;2.83;;
41755;SDS011;27435;48.480;9.258;2022-09-06T05:53:36;7.55;;;3.10;;
41755;SDS011;27435;48.480;9.258;2022-09-06T05:56:06;8.93;;;3.00;;
41755;SDS011;27435;48.480;9.258;2022-09-06T05:58:33;6.20;;;2.92;;
41755;SDS011;27435;48.480;9.258;2022-09-06T06:01:05;7.43;;;3.20;;
41755;SDS011;27435;48.480;9.258;2022-09-06T06:03:40;4.90;;;2.92;;
41755;SDS011;27435;48.480;9.258;2022-09-06T06:06:07;4.88;;;2.72;;
41755;SDS011;27435;48.480;9.258;2022-09-06T06:08:33;5.63;;;2.55;;
41755;SDS011;27435;48.480;9.258;2022-09-06T06:11:00;4.18;;;2.72;;
41755;SDS011;27435;48.480;9.258;2022-09-06T06:13:27;4.25;;;2.42;;
41755;SDS011;27435;48.480;9.258;2022-09-06T06:15:54;5.20;;;2.97;;
41755;SDS011;27435;48.480;9.258;2022-09-06T06:18:21;6.35;;;2.50;;
41755;SDS011;27435;48.480;9.258;2022-09-06T06:20:47;8.02;;;2.70;;
41755;SDS011;27435;48.480;9.258;2022-09-06T06:23:13;5.95;;;2.70;;
41755;SDS011;27435;48.480;9.258;2022-09-06T06:25:39;3.78;;;2.60;;
41755;SDS011;27435;48.480;9.258;2022-09-06T06:28:05;5.07;;;2.38;;
41755;SDS011;27435;48.480;9.258;2022-09-06T06:30:30;4.43;;;2.22;;
41755;SDS011;27435;48.480;9.258;2022-09-06T06:32:56;4.32;;;2.10;;
41755;SDS011;27435;48.480;9.258;2022-09-06T06:35:23;5.00;;;3.05;;
41755;SDS011;27435;48.480;9.258;2022-09-06T06:37:49;4.68;;;2.20;;
41755;SDS011;27435;48.480;9.258;2022-09-06T06:40:15;4.78;;;2.60;;
41755;SDS011;27435;48.480;9.258;2022-09-06T06:42:40;4.30;;;2.22;;
41755;SDS011;27435;48.480;9.258;2022-09-06T06:45:07;6.15;;;2.80;;
41755;SDS011;27435;48.480;9.258;2022-09-06T06:47:33;7.07;;;2.60;;
41755;SDS011;27435;48.480;9.258;2022-09-06T06:49:58;4.43;;;2.55;;
41755;SDS011;27435;48.480;9.258;2022-09-06T06:52:24;5.00;;;2.60;;
41755;SDS011;27435;48.480;9.258;2022-09-06T06:54:50;6.40;;;3.10;;
41755;SDS011;27435;48.480;9.258;2022-09-06T06:57:15;8.02;;;2.80;;
41755;SDS011;27435;48.480;9.258;2022-09-06T06:59:41;6.05;;;2.60;;
41755;SDS011;27435;48.480;9.258;2022-09-06T07:02:07;10.90;;;2.47;;
41755;SDS011;27435;48.480;9.258;2022-09-06T07:04:33;8.40;;;3.55;;
41755;SDS011;27435;48.480;9.258;2022-09-06T07:06:58;6.72;;;2.83;;
41755;SDS011;27435;48.480;9.258;2022-09-06T07:09:24;7.93;;;2.53;;
41755;SDS011;27435;48.480;9.258;2022-09-06T07:11:51;8.35;;;2.55;;
41755;SDS011;27435;48.480;9.258;2022-09-06T07:14:16;7.80;;;2.88;;
41755;SDS011;27435;48.480;9.258;2022-09-06T07:16:43;6.88;;;2.60;;
41755;SDS011;27435;48.480;9.258;2022-09-06T07:19:09;6.35;;;2.85;;
41755;SDS011;27435;48.480;9.258;2022-09-06T07:21:35;6.45;;;2.80;;
41755;SDS011;27435;48.480;9.258;2022-09-06T07:24:00;5.97;;;2.85;;
41755;SDS011;27435;48.480;9.258;2022-09-06T07:26:27;6.80;;;2.72;;
41755;SDS011;27435;48.480;9.258;2022-09-06T07:28:54;8.55;;;2.78;;
41755;SDS011;27435;48.480;9.258;2022-09-06T07:31:22;11.77;;;3.03;;
41755;SDS011;27435;48.480;9.258;2022-09-06T07:33:47;6.90;;;3.15;;
41755;SDS011;27435;48.480;9.258;2022-09-06T07:36:13;6.30;;;2.90;;
41755;SDS011;27435;48.480;9.258;2022-09-06T07:38:39;7.20;;;2.92;;
41755;SDS011;27435;48.480;9.258;2022-09-06T07:41:06;7.10;;;3.13;;
41755;SDS011;27435;48.480;9.258;2022-09-06T07:43:34;5.95;;;3.10;;
41755;SDS011;27435;48.480;9.258;2022-09-06T07:46:01;4.13;;;2.72;;
41755;SDS011;27435;48.480;9.258;2022-09-06T07:48:29;6.57;;;3.10;;
41755;SDS011;27435;48.480;9.258;2022-09-06T07:51:03;9.23;;;3.53;;
41755;SDS011;27435;48.480;9.258;2022-09-06T07:53:33;6.53;;;2.67;;
41755;SDS011;27435;48.480;9.258;2022-09-06T07:56:00;10.75;;;3.58;;
41755;SDS011;27435;48.480;9.258;2022-09-06T07:58:27;7.30;;;2.65;;
41755;SDS011;27435;48.480;9.258;2022-09-06T08:01:12;6.15;;;2.75;;
41755;SDS011;27435;48.480;9.258;2022-09-06T08:03:44;7.28;;;3.30;;
41755;SDS011;27435;48.480;9.258;2022-09-06T08:06:11;8.50;;;2.92;;
41755;SDS011;27435;48.480;9.258;2022-09-06T08:08:37;5.03;;;2.42;;
41755;SDS011;27435;48.480;9.258;2022-09-06T08:11:03;6.47;;;3.08;;
41755;SDS011;27435;48.480;9.258;2022-09-06T08:13:31;11.90;;;2.88;;
41755;SDS011;27435;48.480;9.258;2022-09-06T08:16:01;12.20;;;3.47;;
41755;SDS011;27435;48.480;9.258;2022-09-06T08:18:29;6.50;;;3.10;;
41755;SDS011;27435;48.480;9.258;2022-09-06T08:20:55;6.65;;;2.50;;
41755;SDS011;27435;48.480;9.258;2022-09-06T08:23:21;9.75;;;3.03;;
41755;SDS011;27435;48.480;9.258;2022-09-06T08:25:56;7.88;;;2.80;;
41755;SDS011;27435;48.480;9.258;2022-09-06T08:28:22;7.93;;;2.90;;
41755;SDS011;27435;48.480;9.258;2022-09-06T08:30:49;11.13;;;3.00;;
41755;SDS011;27435;48.480;9.258;2022-09-06T08:33:14;9.23;;;2.72;;
41755;SDS011;27435;48.480;9.258;2022-09-06T08:35:41;10.02;;;3.33;;
41755;SDS011;27435;48.480;9.258;2022-09-06T08:38:07;7.75;;;2.72;;
41755;SDS011;27435;48.480;9.258;2022-09-06T08:40:33;6.05;;;2.47;;
41755;SDS011;27435;48.480;9.258;2022-09-06T08:42:58;4.68;;;2.70;;
41755;SDS011;27435;48.480;9.258;2022-09-06T08:45:25;10.68;;;2.60;;
41755;SDS011;27435;48.480;9.258;2022-09-06T08:47:50;6.05;;;2.97;;
41755;SDS011;27435;48.480;9.258;2022-09-06T08:50:24;7.22;;;2.70;;
41755;SDS011;27435;48.480;9.258;2022-09-06T08:55:46;8.18;;;2.70;;
41755;SDS011;27435;48.480;9.258;2022-09-06T08:58:39;6.22;;;2.90;;
41755;SDS011;27435;48.480;9.258;2022-09-06T09:01:14;9.63;;;2.78;;
41755;SDS011;27435;48.480;9.258;2022-09-06T09:03:49;9.27;;;3.40;;
41755;SDS011;27435;48.480;9.258;2022-09-06T09:06:19;8.00;;;2.67;;
41755;SDS011;27435;48.480;9.258;2022-09-06T09:09:06;10.07;;;3.00;;
41755;SDS011;27435;48.480;9.258;2022-09-06T09:11:33;6.75;;;2.30;;
41755;SDS011;27435;48.480;9.258;2022-09-06T09:16:32;8.30;;;2.58;;
41755;SDS011;27435;48.480;9.258;2022-09-06T09:18:59;8.25;;;2.58;;
41755;SDS011;27435;48.480;9.258;2022-09-06T09:21:27;8.25;;;2.67;;
41755;SDS011;27435;48.480;9.258;2022-09-06T09:23:57;12.57;;;2.60;;
41755;SDS011;27435;48.480;9.258;2022-09-06T09:26:27;8.07;;;2.85;;
41755;SDS011;27435;48.480;9.258;2022-09-06T09:29:08;6.88;;;2.72;;
41755;SDS011;27435;48.480;9.258;2022-09-06T09:31:40;9.73;;;2.80;;
41755;SDS011;27435;48.480;9.258;2022-09-06T09:34:32;7.80;;;2.75;;
41755;SDS011;27435;48.480;9.258;2022-09-06T09:39:49;11.85;;;2.72;;
41755;SDS011;27435;48.480;9.258;2022-09-06T09:42:26;11.45;;;2.70;;
41755;SDS011;27435;48.480;9.258;2022-09-06T09:44:54;6.60;;;2.20;;
41755;SDS011;27435;48.480;9.258;2022-09-06T09:47:24;7.13;;;2.90;;
41755;SDS011;27435;48.480;9.258;2022-09-06T09:49:52;7.00;;;2.10;;
41755;SDS011;27435;48.480;9.258;2022-09-06T09:52:28;7.20;;;2.53;;
41755;SDS011;27435;48.480;9.258;2022-09-06T09:55:02;9.55;;;2.63;;
41755;SDS011;27435;48.480;9.258;2022-09-06T09:57:30;9.00;;;2.58;;
41755;SDS011;27435;48.480;9.258;2022-09-06T10:00:07;10.98;;;3.17;;
41755;SDS011;27435;48.480;9.258;2022-09-06T10:02:38;9.90;;;2.83;;
41755;SDS011;27435;48.480;9.258;2022-09-06T10:05:07;7.47;;;2.17;;
41755;SDS011;27435;48.480;9.258;2022-09-06T10:07:41;16.55;;;3.15;;
41755;SDS011;27435;48.480;9.258;2022-09-06T10:10:27;8.13;;;2.80;;
41755;SDS011;27435;48.480;9.258;2022-09-06T10:15:53;6.40;;;2.60;;
41755;SDS011;27435;48.480;9.258;2022-09-06T10:18:30;10.32;;;2.58;;
41755;SDS011;27435;48.480;9.258;2022-09-06T10:20:58;10.80;;;2.47;;
41755;SDS011;27435;48.480;9.258;2022-09-06T10:26:49;10.30;;;2.50;;
41755;SDS011;27435;48.480;9.258;2022-09-06T10:29:11;9.23;;;2.97;;
41755;SDS011;27435;48.480;9.258;2022-09-06T10:45:09;24.92;;;3.40;;
41755;SDS011;27435;48.480;9.258;2022-09-06T10:50:48;9.45;;;2.45;;
41755;SDS011;27435;48.480;9.258;2022-09-06T10:53:33;11.25;;;2.47;;
41755;SDS011;27435;48.480;9.258;2022-09-06T10:56:05;6.63;;;2.25;;
41755;SDS011;27435;48.480;9.258;2022-09-06T10:58:33;8.65;;;2.42;;
41755;SDS011;27435;48.480;9.258;2022-09-06T11:01:06;9.43;;;2.40;;
41755;SDS011;27435;48.480;9.258;2022-09-06T11:03:43;12.38;;;2.20;;
41755;SDS011;27435;48.480;9.258;2022-09-06T11:06:09;10.65;;;2.17;;
41755;SDS011;27435;48.480;9.258;2022-09-06T11:08:46;8.77;;;2.42;;
41755;SDS011;27435;48.480;9.258;2022-09-06T11:11:32;14.15;;;2.55;;
41755;SDS011;27435;48.480;9.258;2022-09-06T11:14:07;9.10;;;2.30;;
41755;SDS011;27435;48.480;9.258;2022-09-06T11:17:22;9.23;;;2.42;;
41755;SDS011;27435;48.480;9.258;2022-09-06T11:20:00;9.50;;;2.70;;
41755;SDS011;27435;48.480;9.258;2022-09-06T11:28:10;7.90;;;2.40;;
41755;SDS011;27435;48.480;9.258;2022-09-06T11:30:42;7.13;;;3.20;;
41755;SDS011;27435;48.480;9.258;2022-09-06T11:35:46;5.93;;;2.53;;
41755;SDS011;27435;48.480;9.258;2022-09-06T11:40:40;11.80;;;2.97;;
41755;SDS011;27435;48.480;9.258;2022-09-06T11:43:40;6.70;;;2.65;;
41755;SDS011;27435;48.480;9.258;2022-09-06T11:46:07;8.30;;;2.97;;
41755;SDS011;27435;48.480;9.258;2022-09-06T11:48:35;10.45;;;3.72;;
41755;SDS011;27435;48.480;9.258;2022-09-06T11:56:57;7.35;;;2.25;;
41755;SDS011;27435;48.480;9.258;2022-09-06T12:07:26;8.48;;;2.38;;
41755;SDS011;27435;48.480;9.258;2022-09-06T12:09:52;10.90;;;2.35;;
41755;SDS011;27435;48.480;9.258;2022-09-06T12:15:27;12.38;;;2.20;;
41755;SDS011;27435;48.480;9.258;2022-09-06T12:17:55;10.85;;;2.33;;
41755;SDS011;27435;48.480;9.258;2022-09-06T12:23:57;9.85;;;2.15;;
41755;SDS011;27435;48.480;9.258;2022-09-06T12:28:31;10.10;;;2.38;;
41755;SDS011;27435;48.480;9.258;2022-09-06T12:31:23;12.95;;;2.28;;
41755;SDS011;27435;48.480;9.258;2022-09-06T12:33:51;9.10;;;2.25;;
41755;SDS011;27435;48.480;9.258;2022-09-06T12:36:25;11.77;;;2.38;;
41755;SDS011;27435;48.480;9.258;2022-09-06T12:39:27;10.52;;;2.08;;
41755;SDS011;27435;48.480;9.258;2022-09-06T12:41:50;8.30;;;2.40;;
41755;SDS011;27435;48.480;9.258;2022-09-06T12:44:26;13.52;;;1.88;;
41755;SDS011;27435;48.480;9.258;2022-09-06T12:46:56;8.38;;;1.67;;
41755;SDS011;27435;48.480;9.258;2022-09-06T12:49:27;8.50;;;2.15;;
41755;SDS011;27435;48.480;9.258;2022-09-06T12:52:04;6.78;;;1.80;;
41755;SDS011;27435;48.480;9.258;2022-09-06T12:54:32;7.57;;;1.75;;
41755;SDS011;27435;48.480;9.258;2022-09-06T12:57:18;9.75;;;1.80;;
41755;SDS011;27435;48.480;9.258;2022-09-06T12:59:49;6.38;;;1.77;;
41755;SDS011;27435;48.480;9.258;2022-09-06T13:02:31;15.10;;;2.20;;
41755;SDS011;27435;48.480;9.258;2022-09-06T13:05:16;6.55;;;1.83;;
41755;SDS011;27435;48.480;9.258;2022-09-06T13:07:43;6.60;;;1.50;;
41755;SDS011;27435;48.480;9.258;2022-09-06T13:10:12;11.32;;;2.88;;
41755;SDS011;27435;48.480;9.258;2022-09-06T13:12:41;7.95;;;1.60;;
41755;SDS011;27435;48.480;9.258;2022-09-06T13:15:22;11.32;;;2.22;;
41755;SDS011;27435;48.480;9.258;2022-09-06T13:18:17;11.40;;;1.55;;
41755;SDS011;27435;48.480;9.258;2022-09-06T13:23:27;11.38;;;1.90;;
41755;SDS011;27435;48.480;9.258;2022-09-06T13:25:53;7.00;;;1.55;;
41755;SDS011;27435;48.480;9.258;2022-09-06T13:28:27;7.20;;;1.60;;
41755;SDS011;27435;48.480;9.258;2022-09-06T13:33:38;5.80;;;1.50;;
41755;SDS011;27435;48.480;9.258;2022-09-06T13:38:47;3.38;;;1.23;;
41755;SDS011;27435;48.480;9.258;2022-09-06T13:44:26;10.55;;;1.77;;
41755;SDS011;27435;48.480;9.258;2022-09-06T13:46:43;5.75;;;1.70;;
41755;SDS011;27435;48.480;9.258;2022-09-06T13:49:09;5.90;;;1.40;;
41755;SDS011;27435;48.480;9.258;2022-09-06T13:51:36;5.40;;;1.50;;
41755;SDS011;27435;48.480;9.258;2022-09-06T13:56:30;6.88;;;1.30;;
41755;SDS011;27435;48.480;9.258;2022-09-06T13:58:56;7.53;;;1.65;;
41755;SDS011;27435;48.480;9.258;2022-09-06T14:01:22;7.15;;;2.00;;
41755;SDS011;27435;48.480;9.258;2022-09-06T14:03:47;4.70;;;1.52;;
41755;SDS011;27435;48.480;9.258;2022-09-06T14:06:14;7.13;;;1.75;;
41755;SDS011;27435;48.480;9.258;2022-09-06T14:08:40;7.20;;;1.50;;
41755;SDS011;27435;48.480;9.258;2022-09-06T14:11:06;9.60;;;1.80;;
41755;SDS011;27435;48.480;9.258;2022-09-06T14:13:32;9.05;;;1.50;;
41755;SDS011;27435;48.480;9.258;2022-09-06T14:15:58;8.52;;;1.65;;
41755;SDS011;27435;48.480;9.258;2022-09-06T14:18:24;7.85;;;1.38;;
41755;SDS011;27435;48.480;9.258;2022-09-06T14:20:53;5.95;;;1.48;;
41755;SDS011;27435;48.480;9.258;2022-09-06T14:23:21;6.70;;;1.20;;
41755;SDS011;27435;48.480;9.258;2022-09-06T14:25:47;7.55;;;1.70;;
41755;SDS011;27435;48.480;9.258;2022-09-06T14:28:13;7.75;;;2.20;;
41755;SDS011;27435;48.480;9.258;2022-09-06T14:30:39;6.15;;;1.73;;
41755;SDS011;27435;48.480;9.258;2022-09-06T14:33:05;5.82;;;1.88;;
41755;SDS011;27435;48.480;9.258;2022-09-06T14:35:31;5.75;;;1.55;;
41755;SDS011;27435;48.480;9.258;2022-09-06T14:37:58;5.15;;;1.60;;
41755;SDS011;27435;48.480;9.258;2022-09-06T14:40:23;4.97;;;1.30;;
41755;SDS011;27435;48.480;9.258;2022-09-06T14:42:50;8.07;;;1.65;;
41755;SDS011;27435;48.480;9.258;2022-09-06T14:45:16;7.40;;;1.48;;
41755;SDS011;27435;48.480;9.258;2022-09-06T14:47:42;7.53;;;1.60;;
41755;SDS011;27435;48.480;9.258;2022-09-06T14:50:08;6.47;;;1.52;;
41755;SDS011;27435;48.480;9.258;2022-09-06T14:52:34;5.18;;;1.40;;
41755;SDS011;27435;48.480;9.258;2022-09-06T14:54:59;4.50;;;1.30;;
41755;SDS011;27435;48.480;9.258;2022-09-06T14:57:25;5.38;;;1.17;;
41755;SDS011;27435;48.480;9.258;2022-09-06T14:59:51;5.47;;;1.70;;
41755;SDS011;27435;48.480;9.258;2022-09-06T15:02:16;7.75;;;1.65;;
41755;SDS011;27435;48.480;9.258;2022-09-06T15:04:42;6.00;;;1.83;;
41755;SDS011;27435;48.480;9.258;2022-09-06T15:07:08;5.78;;;1.48;;
41755;SDS011;27435;48.480;9.258;2022-09-06T15:09:34;4.72;;;1.42;;
41755;SDS011;27435;48.480;9.258;2022-09-06T15:12:00;5.32;;;1.50;;
41755;SDS011;27435;48.480;9.258;2022-09-06T15:14:27;5.30;;;1.50;;
41755;SDS011;27435;48.480;9.258;2022-09-06T15:16:54;5.10;;;1.55;;
41755;SDS011;27435;48.480;9.258;2022-09-06T15:19:23;6.53;;;1.80;;
41755;SDS011;27435;48.480;9.258;2022-09-06T15:21:51;7.50;;;1.52;;
41755;SDS011;27435;48.480;9.258;2022-09-06T15:24:17;6.82;;;1.70;;
41755;SDS011;27435;48.480;9.258;2022-09-06T15:26:43;5.88;;;1.65;;
41755;SDS011;27435;48.480;9.258;2022-09-06T15:29:09;5.97;;;1.77;;
41755;SDS011;27435;48.480;9.258;2022-09-06T15:31:39;4.65;;;1.10;;
41755;SDS011;27435;48.480;9.258;2022-09-06T15:34:06;6.40;;;1.27;;
41755;SDS011;27435;48.480;9.258;2022-09-06T15:36:33;3.53;;;1.55;;
41755;SDS011;27435;48.480;9.258;2022-09-06T15:38:59;7.00;;;1.13;;
41755;SDS011;27435;48.480;9.258;2022-09-06T15:41:27;5.75;;;1.70;;
41755;SDS011;27435;48.480;9.258;2022-09-06T15:43:56;7.05;;;1.35;;
41755;SDS011;27435;48.480;9.258;2022-09-06T15:49:21;2.63;;;0.90;;
41755;SDS011;27435;48.480;9.258;2022-09-06T15:51:49;4.72;;;1.58;;
41755;SDS011;27435;48.480;9.258;2022-09-06T15:54:15;3.10;;;1.00;;
41755;SDS011;27435;48.480;9.258;2022-09-06T15:56:43;2.80;;;1.17;;
41755;SDS011;27435;48.480;9.258;2022-09-06T15:59:09;4.63;;;1.00;;
41755;SDS011;27435;48.480;9.258;2022-09-06T16:01:36;3.83;;;1.05;;
41755;SDS011;27435;48.480;9.258;2022-09-06T16:04:03;7.63;;;0.90;;
41755;SDS011;27435;48.480;9.258;2022-09-06T16:06:35;3.78;;;0.95;;
41755;SDS011;27435;48.480;9.258;2022-09-06T16:09:07;6.68;;;2.33;;
41755;SDS011;27435;48.480;9.258;2022-09-06T16:11:34;3.40;;;0.85;;
41755;SDS011;27435;48.480;9.258;2022-09-06T16:14:04;4.90;;;0.85;;
41755;SDS011;27435;48.480;9.258;2022-09-06T16:16:32;2.25;;;0.80;;
41755;SDS011;27435;48.480;9.258;2022-09-06T16:18:59;2.67;;;0.82;;
41755;SDS011;27435;48.480;9.258;2022-09-06T16:21:29;5.78;;;1.33;;
41755;SDS011;27435;48.480;9.258;2022-09-06T16:23:57;6.03;;;1.55;;
41755;SDS011;27435;48.480;9.258;2022-09-06T16:26:26;7.40;;;1.20;;
41755;SDS011;27435;48.480;9.258;2022-09-06T16:28:56;3.95;;;1.10;;
41755;SDS011;27435;48.480;9.258;2022-09-06T16:31:22;7.55;;;1.30;;
41755;SDS011;27435;48.480;9.258;2022-09-06T16:33:48;3.42;;;1.17;;
41755;SDS011;27435;48.480;9.258;2022-09-06T16:36:15;5.70;;;1.52;;
41755;SDS011;27435;48.480;9.258;2022-09-06T16:38:41;5.15;;;1.63;;
41755;SDS011;27435;48.480;9.258;2022-09-06T16:41:20;5.50;;;1.38;;
41755;SDS011;27435;48.480;9.258;2022-09-06T16:43:49;7.28;;;1.58;;
41755;SDS011;27435;48.480;9.258;2022-09-06T16:46:16;5.03;;;1.40;;